BQR weather

Buffalo Lancaster Regional Airport
Lancaster, New York, United States

Public forecast

Using degrees Fahrenheit for public forecast. Weather courtesy of forecast.io.

METAR (pilot weather report)

Closest report is Buffalo Niagara International Airport, 5.4 nm (10.0 km) WNW. Retrieved 2019/04/18 16:54 UTC (1 hour ago):

KBUF 181654Z 19020G28KT 10SM FEW047 FEW065 SCT140 BKN240 BKN290 22/09 A2967 RMK AO2 PK WND 20029/1612 SLP046 T02170094

TAF (pilot weather forecast)

Closest forecast is Buffalo Niagara International Airport, 5.4 nm (10.0 km) WNW. Retrieved 2019/04/18 12:22 UTC (6 hours ago):

TAF KBUF 181120Z 1812/1912 17014KT P6SM SCT250 WS020/20045KT FM181400 19019G25KT P6SM SCT250 FM190500 20009KT P6SM BKN050